Kezdőlap
METAR-TAF:

METAR-TAF

Repülőterek :

Bloemfontein, Dél-afrikai Köztársaság

földrajzi szélesség: 29-06S, földrajzi hosszúság: 026-18E, magasság: 1354 m

Jelenlegi meteorológiai megfigyelések

A jelentés 58 perccel ezelõtt készült, 07:00 UTC
Szélcsend
Hőmérséklet 8°C
Páratartalom 61%
Légköri nyomás 1034 hPa
Látótávolság 10 km, vagy több
felhőtlen 1500 m magasságban, és nincs gomolyfelhõ

METAR: FABL 240700Z 00000KT CAVOK 08/01 Q1034 NOSIG

Idő: 09:58 (07:58 UTC)

Előrejelzés

A jelentés 3 órával és 58 perccel ezelõtt készült, 04:00 UTC
Az előrejelzés 24-én 06 óra UTC és 25-én 06 óra UTC között érvényes
Különbözõ irányokból fújó szél 3 kt
Látótávolság 10 km, vagy több
felhőtlen 1500 m magasságban, és nincs gomolyfelhõ

TAF: FABL 240400Z 2406/2506 VRB03KT CAVOK TX20/2412Z TN00/2504Z

Meteorológiai megfigyelések és előrejelzések több, mint 4000 repülőtéren (METAR és TAF jelentéseket).

A térképen piros és sárga pontok jelzik az elérhető meteorológiai állomásokat.

Mozgassa az egeret a pont fölött, hogy megjelenjen az állomás neve.

Azután kattintson az időjárási megfigyelések és előrejelzések megtekintéséhez.

A térkép megváltoztatása: kattintson a fekete keresztel jelölt zöld gombra ráközelítéshez, a vonallal jelölt zöld gombra távolításhoz, vagy a zöld nyilakra a szomszédos térképek eléréséhez.


METAR-TAF: